createdAt,value
2023-10-01T00:02:01.220Z,89.2
2023-10-01T00:05:02.245Z,89.3
2023-10-01T00:08:03.317Z,89.2
2023-10-01T00:11:04.341Z,89.2
2023-10-01T00:14:05.331Z,89.1
2023-10-01T00:17:06.391Z,89.1
2023-10-01T00:20:07.385Z,88.7
2023-10-01T00:23:08.406Z,88.2
2023-10-01T00:24:25.160Z,87.9
2023-10-01T00:26:09.461Z,88.1
2023-10-01T00:29:10.441Z,87.9
2023-10-01T00:32:11.512Z,88.2
2023-10-01T00:35:12.497Z,87.8
2023-10-01T00:38:13.568Z,88
2023-10-01T00:41:14.536Z,88.1
2023-10-01T00:44:15.574Z,88.2
2023-10-01T00:47:16.585Z,88.8
2023-10-01T00:50:17.656Z,88.6
2023-10-01T00:53:18.634Z,88.7
2023-10-01T00:54:35.421Z,89.1
2023-10-01T00:56:19.656Z,89.2
2023-10-01T00:59:20.696Z,89.3
2023-10-01T01:02:21.710Z,89.5
2023-10-01T01:05:22.730Z,90.2
2023-10-01T01:08:23.763Z,90.6
2023-10-01T01:11:24.784Z,90.9
2023-10-01T01:14:25.812Z,91.1
2023-10-01T01:17:26.834Z,91.4
2023-10-01T01:20:27.852Z,91.4
2023-10-01T01:23:28.883Z,91.6
2023-10-01T01:24:45.675Z,91.4
2023-10-01T01:26:29.911Z,91.5
2023-10-01T01:29:30.924Z,91.6
2023-10-01T01:32:31.947Z,91.6
2023-10-01T01:35:32.976Z,91.6
2023-10-01T01:38:34.000Z,91.3
2023-10-01T01:41:35.025Z,91
2023-10-01T01:44:36.100Z,91.1
2023-10-01T01:47:37.078Z,90.7
2023-10-01T01:50:38.148Z,90.3
2023-10-01T01:53:39.118Z,90.2
2023-10-01T01:54:55.945Z,90.3
2023-10-01T01:56:40.194Z,90.4
2023-10-01T01:59:41.211Z,90.7
2023-10-01T02:02:42.242Z,91
2023-10-01T02:05:43.213Z,91.3
2023-10-01T02:08:44.296Z,91
2023-10-01T02:11:45.316Z,90.9
2023-10-01T02:14:46.289Z,90.8
2023-10-01T02:17:47.324Z,90.5
2023-10-01T02:20:48.344Z,90.1
2023-10-01T02:23:49.367Z,89.8
2023-10-01T02:25:06.203Z,90.1
2023-10-01T02:26:50.396Z,90.1
2023-10-01T02:35:53.511Z,90.7
2023-10-01T02:38:54.482Z,91.1
2023-10-01T02:41:55.546Z,90.8
2023-10-01T02:44:56.540Z,91
2023-10-01T02:47:57.550Z,91.4
2023-10-01T02:50:58.577Z,90.9
2023-10-01T02:53:59.599Z,90.8
2023-10-01T02:55:16.464Z,90.6
2023-10-01T02:57:00.687Z,90.7
2023-10-01T03:00:01.657Z,90.5
2023-10-01T03:03:02.672Z,90.4
2023-10-01T03:06:03.693Z,91.3
2023-10-01T03:09:04.726Z,90.8
2023-10-01T03:12:05.748Z,90.8
2023-10-01T03:15:06.765Z,90.5
2023-10-01T03:18:07.790Z,90.7
2023-10-01T03:21:08.822Z,90.5
2023-10-01T03:24:09.839Z,90.8
2023-10-01T03:25:26.712Z,91
2023-10-01T03:27:10.912Z,90.9
2023-10-01T03:30:11.888Z,90.9
2023-10-01T03:33:12.956Z,90.4
2023-10-01T03:36:13.933Z,90.3
2023-10-01T03:39:15.018Z,89.8
2023-10-01T03:42:16.035Z,90
2023-10-01T03:45:17.019Z,90.1
2023-10-01T03:48:18.088Z,90
2023-10-01T03:51:19.106Z,90.7
2023-10-01T03:54:20.076Z,90
2023-10-01T03:55:36.964Z,90.4
2023-10-01T03:57:21.107Z,90.4
2023-10-01T04:00:22.133Z,91
2023-10-01T04:03:23.156Z,90.8
2023-10-01T04:06:24.225Z,91.1
2023-10-01T04:09:25.264Z,91.5
2023-10-01T04:12:26.230Z,91.6
2023-10-01T04:15:27.250Z,92
2023-10-01T04:18:28.319Z,92.3
2023-10-01T04:21:29.296Z,92.4
2023-10-01T04:24:30.377Z,92.5
2023-10-01T04:25:47.227Z,92.5
2023-10-01T04:27:31.392Z,92.5
2023-10-01T04:30:32.378Z,92.3
2023-10-01T04:33:33.444Z,91.9
2023-10-01T04:36:34.420Z,91.8
2023-10-01T04:39:35.447Z,92
2023-10-01T04:42:36.510Z,92.1
2023-10-01T04:45:37.491Z,92.6
2023-10-01T04:48:38.518Z,92.8
2023-10-01T04:51:39.539Z,92.8
2023-10-01T04:54:40.560Z,92.9
2023-10-01T04:55:57.477Z,93.3
2023-10-01T05:00:42.664Z,93.1
2023-10-01T05:03:43.681Z,93.1
2023-10-01T05:06:44.668Z,92.8
2023-10-01T05:09:45.691Z,92.6
2023-10-01T05:12:46.703Z,92.2
2023-10-01T05:15:47.725Z,92.1
2023-10-01T05:18:48.811Z,92.6
2023-10-01T05:21:49.822Z,92.4
2023-10-01T05:24:50.858Z,92.3
2023-10-01T05:26:07.743Z,92.4
2023-10-01T05:27:51.886Z,92.4
2023-10-01T05:30:52.861Z,92.5
2023-10-01T05:33:53.931Z,92.6
2023-10-01T05:36:54.951Z,92.6
2023-10-01T05:39:55.926Z,92.4
2023-10-01T05:42:56.944Z,92.3
2023-10-01T05:45:57.981Z,92.5
2023-10-01T05:48:59.042Z,93.1
2023-10-01T05:52:00.014Z,92.7
2023-10-01T05:55:01.038Z,91.5
2023-10-01T05:56:17.996Z,91.2
2023-10-01T05:58:02.116Z,90.6
2023-10-01T06:01:03.094Z,90.8
2023-10-01T06:04:04.165Z,90.8
2023-10-01T06:07:05.202Z,90.4
2023-10-01T06:10:06.158Z,90.3
2023-10-01T06:13:07.234Z,89.6
2023-10-01T06:16:08.210Z,89.7
2023-10-01T06:19:09.230Z,89.3
2023-10-01T06:22:10.253Z,89.6
2023-10-01T06:25:11.326Z,89.3
2023-10-01T06:26:28.252Z,88.7
2023-10-01T06:28:12.311Z,88.6
2023-10-01T06:31:13.384Z,89.1
2023-10-01T06:34:14.620Z,88.6
2023-10-01T06:38:53.161Z,87.6
2023-10-01T06:40:23.725Z,87.6
2023-10-01T06:41:54.183Z,87.3
2023-10-01T06:43:24.748Z,87.1
2023-10-01T06:46:25.784Z,86.7
2023-10-01T06:47:56.226Z,86.7
2023-10-01T06:49:26.738Z,87
2023-10-01T06:50:57.265Z,86.9
2023-10-01T06:52:27.820Z,86.9
2023-10-01T06:53:58.338Z,87.1
2023-10-01T06:55:28.801Z,87.4
2023-10-01T06:56:43.867Z,87.1
2023-10-01T06:57:58.990Z,87.1
2023-10-01T06:59:29.448Z,85.6
2023-10-01T07:00:59.959Z,85
2023-10-01T07:02:30.473Z,84.7
2023-10-01T07:04:00.991Z,83.8
2023-10-01T07:05:31.502Z,82.3
2023-10-01T07:07:02.013Z,81.2
2023-10-01T07:08:32.519Z,80.3
2023-10-01T07:10:03.032Z,79.4
2023-10-01T07:11:33.550Z,78.9
2023-10-01T07:14:03.691Z,77.8
2023-10-01T07:17:04.723Z,76
2023-10-01T07:18:35.232Z,76
2023-10-01T07:20:05.750Z,76
2023-10-01T07:21:36.307Z,74.4
2023-10-01T07:23:06.767Z,73.6
2023-10-01T07:26:07.780Z,72.1
2023-10-01T07:27:38.434Z,71
2023-10-01T07:28:53.450Z,71.9
2023-10-01T07:30:08.529Z,70.8
2023-10-01T07:31:39.030Z,71
2023-10-01T07:33:09.543Z,69.8
2023-10-01T07:34:40.064Z,69.2
2023-10-01T07:36:10.629Z,69
2023-10-01T07:37:41.087Z,69.6
2023-10-01T07:39:11.606Z,68.9
2023-10-01T07:40:42.100Z,68.7
2023-10-01T07:42:12.622Z,68.3
2023-10-01T07:43:43.192Z,68.6
2023-10-01T07:44:58.217Z,68.3
2023-10-01T07:46:13.327Z,67.6
2023-10-01T07:47:43.798Z,68
2023-10-01T07:49:14.312Z,68.3
2023-10-01T07:50:44.824Z,68.7
2023-10-01T07:52:15.382Z,68.1
2023-10-01T07:53:45.845Z,68.3
2023-10-01T07:55:16.399Z,68.9
2023-10-01T07:56:46.871Z,68.7
2023-10-01T07:58:17.439Z,68.3
2023-10-01T07:59:47.896Z,69.1
2023-10-01T08:01:02.975Z,68.8
2023-10-01T08:02:18.050Z,68
2023-10-01T08:03:48.557Z,67.8
2023-10-01T08:05:19.068Z,67.5
2023-10-01T08:06:49.590Z,67.5
2023-10-01T08:08:20.090Z,67.9
2023-10-01T08:09:50.640Z,67.4
2023-10-01T08:11:21.115Z,67.1
2023-10-01T08:12:51.641Z,66.3
2023-10-01T08:14:22.218Z,66.7
2023-10-01T08:16:00.853Z,66.7
2023-10-01T08:17:15.922Z,66
2023-10-01T08:18:31.001Z,66
2023-10-01T08:20:01.499Z,65.2
2023-10-01T08:21:32.007Z,65.2
2023-10-01T08:24:33.078Z,63.1
2023-10-01T08:26:03.552Z,63.1
2023-10-01T08:27:34.068Z,62.4
2023-10-01T08:29:04.570Z,62.8
2023-10-01T08:30:35.087Z,61.9
2023-10-01T08:33:20.664Z,62
2023-10-01T08:34:35.738Z,62
2023-10-01T08:36:06.258Z,61.5
2023-10-01T08:37:36.760Z,60.8
2023-10-01T08:39:07.276Z,61
2023-10-01T08:40:37.799Z,60.6
2023-10-01T08:42:08.396Z,60.4
2023-10-01T08:43:47.006Z,60.3
2023-10-01T08:45:17.524Z,58.8
2023-10-01T08:46:48.026Z,58
2023-10-01T08:48:18.539Z,58.7
2023-10-01T08:49:33.619Z,59.2
2023-10-01T08:50:48.680Z,59.9
2023-10-01T08:53:49.705Z,59.8
2023-10-01T08:56:50.744Z,59.3
2023-10-01T08:58:21.243Z,60.1
2023-10-01T08:59:51.836Z,60.5
2023-10-01T09:01:30.454Z,60.4
2023-10-01T09:03:00.987Z,60.8
2023-10-01T09:04:31.480Z,60.9
2023-10-01T09:05:46.564Z,60.4
2023-10-01T09:08:32.142Z,57.6
2023-10-01T09:10:02.648Z,57
2023-10-01T09:11:33.162Z,55.8
2023-10-01T09:13:03.677Z,53.9
2023-10-01T09:14:34.189Z,52.3
2023-10-01T09:16:04.700Z,52.1
2023-10-01T09:17:35.215Z,51.3
2023-10-01T09:19:05.739Z,52.1
2023-10-01T09:20:36.247Z,51.9
2023-10-01T09:23:06.382Z,53.7
2023-10-01T09:24:36.901Z,52.8
2023-10-01T09:26:07.420Z,51.9
2023-10-01T09:27:37.918Z,51.8
2023-10-01T09:29:08.431Z,52.8
2023-10-01T09:32:09.452Z,51.8
2023-10-01T09:33:39.971Z,53.6
2023-10-01T09:35:10.489Z,53.9
2023-10-01T09:36:41.005Z,53.5
2023-10-01T09:37:56.071Z,53.4
2023-10-01T09:39:11.132Z,54.6
2023-10-01T09:40:41.648Z,54.6
2023-10-01T09:43:42.679Z,54.8
2023-10-01T09:46:43.706Z,55.6
2023-10-01T09:48:14.209Z,55
2023-10-01T09:51:15.231Z,55.1
2023-10-01T09:52:45.748Z,55.9
2023-10-01T09:54:00.832Z,55.3
2023-10-01T09:55:15.904Z,55
2023-10-01T09:56:46.419Z,54.6
2023-10-01T09:58:16.926Z,54.5
2023-10-01T09:59:47.443Z,53.5
2023-10-01T10:02:48.448Z,53.9
2023-10-01T10:04:18.975Z,55
2023-10-01T10:05:49.477Z,55.3
2023-10-01T10:10:05.577Z,54.6
2023-10-01T10:11:20.644Z,54
2023-10-01T10:14:21.666Z,53.2
2023-10-01T10:15:52.187Z,54.2
2023-10-01T10:17:22.692Z,53.7
2023-10-01T10:18:53.208Z,55.2
2023-10-01T10:20:23.721Z,54.4
2023-10-01T10:21:54.236Z,53.8
2023-10-01T10:24:55.264Z,53.5
2023-10-01T10:27:25.401Z,53.4
2023-10-01T10:30:26.438Z,53.9
2023-10-01T10:31:56.938Z,54.5
2023-10-01T10:33:27.463Z,54
2023-10-01T10:34:57.979Z,53.9
2023-10-01T10:39:29.499Z,51.5
2023-10-01T10:41:00.012Z,50.8
2023-10-01T10:42:15.094Z,50.3
2023-10-01T10:43:30.158Z,50.9
2023-10-01T10:45:00.672Z,52.5
2023-10-01T10:46:31.177Z,52.2
2023-10-01T10:48:01.692Z,51.2
2023-10-01T10:49:32.221Z,51.9
2023-10-01T10:51:02.728Z,49.5
2023-10-01T10:55:02.405Z,51.1
2023-10-01T10:57:21.136Z,51.1
2023-10-01T10:58:37.132Z,52.5
2023-10-01T11:01:38.137Z,52.8
2023-10-01T11:07:40.200Z,51.8
2023-10-01T11:10:41.204Z,52.4
2023-10-01T11:13:42.236Z,52.5
2023-10-01T11:16:43.257Z,49.5
2023-10-01T11:19:44.285Z,50.1
2023-10-01T11:22:45.314Z,50
2023-10-01T11:25:46.340Z,48.3
2023-10-01T11:27:31.384Z,48.8
2023-10-01T11:31:15.872Z,47.8
2023-10-01T11:34:16.881Z,49.6
2023-10-01T11:37:17.904Z,48.1
2023-10-01T11:40:18.926Z,48.3
2023-10-01T11:46:20.970Z,49.6
2023-10-01T11:49:22.006Z,51
2023-10-01T11:52:23.014Z,50.9
2023-10-01T11:57:41.868Z,48.1
2023-10-01T11:58:58.022Z,46.6
2023-10-01T12:01:59.030Z,47
2023-10-01T12:05:00.060Z,48.6
2023-10-01T12:08:01.090Z,49.7
2023-10-01T12:11:02.100Z,47.7
2023-10-01T12:14:03.139Z,49.1
2023-10-01T12:17:04.154Z,48.1
2023-10-01T12:20:05.163Z,46.8
2023-10-01T12:23:06.199Z,46.5
2023-10-01T12:26:07.216Z,46.7
2023-10-01T12:27:52.128Z,47
2023-10-01T12:29:08.251Z,46.4
2023-10-01T12:32:09.267Z,45.9
2023-10-01T12:38:11.308Z,46
2023-10-01T12:44:13.351Z,45.6
2023-10-01T12:50:15.411Z,46
2023-10-01T12:53:16.421Z,47.2
2023-10-01T12:56:17.445Z,47.5
2023-10-01T12:58:02.366Z,48
2023-10-01T13:02:19.507Z,48.5
2023-10-01T13:11:22.571Z,49.9
2023-10-01T13:14:23.598Z,50.2
2023-10-01T13:17:24.602Z,49.8
2023-10-01T13:23:26.661Z,49.9
2023-10-01T13:26:27.688Z,50.2
2023-10-01T13:28:12.617Z,50.7
2023-10-01T13:29:28.713Z,51.1
2023-10-01T13:32:29.727Z,51.3
2023-10-01T13:35:30.763Z,50.7
2023-10-01T13:38:30.941Z,51.9
2023-10-01T13:40:09.562Z,50.7
2023-10-01T13:41:40.063Z,51.7
2023-10-01T13:43:10.570Z,51.6
2023-10-01T13:44:41.100Z,49.9
2023-10-01T13:46:11.611Z,50
2023-10-01T13:47:42.132Z,50.6
2023-10-01T13:49:12.623Z,49.3
2023-10-01T13:53:44.168Z,48
2023-10-01T13:56:45.207Z,49.8
2023-10-01T13:58:15.715Z,49.4
2023-10-01T13:59:30.775Z,49.9
2023-10-01T14:00:45.860Z,49.5
2023-10-01T14:05:17.378Z,47.5
2023-10-01T14:06:47.884Z,46.8
2023-10-01T14:09:48.939Z,47.8
2023-10-01T14:11:19.437Z,48
2023-10-01T14:12:49.950Z,47.8
2023-10-01T14:15:35.517Z,47.6
2023-10-01T14:16:50.603Z,46.8
2023-10-01T14:19:51.646Z,46.3
2023-10-01T14:21:22.131Z,46.2
2023-10-01T14:22:52.642Z,47.1
2023-10-01T14:24:23.174Z,46.9
2023-10-01T14:25:53.680Z,47.9
2023-10-01T14:27:24.180Z,47.4
2023-10-01T14:30:25.210Z,48.8
2023-10-01T14:31:40.289Z,48.8
2023-10-01T14:32:55.358Z,50.6
2023-10-01T14:34:25.862Z,48.7
2023-10-01T14:37:26.895Z,49.4
2023-10-01T14:38:57.399Z,48.6
2023-10-01T14:41:58.431Z,48.3
2023-10-01T14:44:59.457Z,49.8
2023-10-01T14:46:29.981Z,49.2
2023-10-01T14:49:00.118Z,48.7
2023-10-01T14:50:30.620Z,48.6
2023-10-01T14:52:01.134Z,49
2023-10-01T14:53:31.641Z,48.6
2023-10-01T14:56:32.663Z,48.8
2023-10-01T14:58:03.185Z,49.8
2023-10-01T14:59:33.709Z,49.2
2023-10-01T15:01:04.209Z,49.6
2023-10-01T15:02:51.100Z,49.6
2023-10-01T15:08:04.931Z,49.7
2023-10-01T15:11:05.953Z,50.6
2023-10-01T15:14:06.975Z,50
2023-10-01T15:17:08.001Z,50.1
2023-10-01T15:20:09.013Z,49.5
2023-10-01T15:23:10.038Z,48.8
2023-10-01T15:26:11.057Z,49.4
2023-10-01T15:29:12.098Z,50.4
2023-10-01T15:32:13.100Z,50.6
2023-10-01T15:35:14.143Z,51.4
2023-10-01T15:38:15.146Z,51.2
2023-10-01T15:41:16.189Z,51.4
2023-10-01T15:44:17.191Z,50.7
2023-10-01T15:47:18.225Z,51.6
2023-10-01T15:50:19.257Z,52.4
2023-10-01T15:53:20.258Z,51.7
2023-10-01T15:56:21.300Z,51.9
2023-10-01T15:59:22.318Z,52.3
2023-10-01T16:02:23.356Z,53.5
2023-10-01T16:03:39.000Z,54.8
2023-10-01T16:05:24.371Z,53.8
2023-10-01T16:08:25.379Z,54.2
2023-10-01T16:11:26.418Z,54.8
2023-10-01T16:14:27.420Z,55.3
2023-10-01T16:17:28.457Z,55.7
2023-10-01T16:20:29.481Z,57.1
2023-10-01T16:23:30.510Z,57.7
2023-10-01T16:26:31.515Z,57.8
2023-10-01T16:29:32.535Z,60.1
2023-10-01T16:32:33.569Z,59.4
2023-10-01T16:33:49.701Z,60
2023-10-01T16:35:34.580Z,60.8
2023-10-01T16:38:35.630Z,60
2023-10-01T16:41:36.640Z,61.4
2023-10-01T16:44:37.660Z,62
2023-10-01T16:47:38.685Z,62.9
2023-10-01T16:50:39.691Z,64.4
2023-10-01T16:53:40.717Z,63.8
2023-10-01T16:56:41.747Z,64.9
2023-10-01T16:59:42.758Z,66
2023-10-01T17:02:43.800Z,65.5
2023-10-01T17:03:59.941Z,64.5
2023-10-01T17:05:44.828Z,66
2023-10-01T17:08:45.851Z,65.4
2023-10-01T17:11:46.863Z,66.7
2023-10-01T17:14:47.878Z,67.4
2023-10-01T17:17:48.911Z,68.5
2023-10-01T17:20:49.944Z,69.1
2023-10-01T17:23:50.948Z,69.8
2023-10-01T17:26:51.982Z,70.3
2023-10-01T17:29:52.991Z,70
2023-10-01T17:32:54.021Z,70.3
2023-10-01T17:35:55.055Z,72.6
2023-10-01T17:38:56.079Z,71.2
2023-10-01T17:41:57.114Z,72.5
2023-10-01T17:44:58.112Z,73.8
2023-10-01T17:47:59.147Z,73.3
2023-10-01T17:51:00.157Z,73.7
2023-10-01T17:54:01.183Z,74.1
2023-10-01T17:57:02.213Z,74.9
2023-10-01T18:00:03.249Z,78
2023-10-01T18:03:04.244Z,79.7
2023-10-01T18:04:20.458Z,80.4
2023-10-01T18:06:05.268Z,79.8
2023-10-01T18:09:06.295Z,80
2023-10-01T18:12:07.313Z,80.7
2023-10-01T18:15:08.347Z,80.8
2023-10-01T18:18:09.385Z,82.2
2023-10-01T18:21:10.385Z,82.9
2023-10-01T18:24:11.410Z,83.8
2023-10-01T18:27:12.429Z,84.2
2023-10-01T18:30:13.449Z,84.8
2023-10-01T18:33:14.477Z,85.3
2023-10-01T18:34:30.699Z,85
2023-10-01T18:36:15.520Z,84.9
2023-10-01T18:39:16.526Z,84.6
2023-10-01T18:42:17.562Z,84.3
2023-10-01T18:45:18.596Z,86.5
2023-10-01T18:48:19.597Z,83.8
2023-10-01T18:51:20.624Z,83.4
2023-10-01T18:54:21.639Z,82
2023-10-01T18:57:22.661Z,81.1
2023-10-01T19:00:23.681Z,80.7
2023-10-01T19:03:24.710Z,78.7
2023-10-01T19:04:40.932Z,78.2
2023-10-01T19:06:25.737Z,78.8
2023-10-01T19:09:26.751Z,77.7
2023-10-01T19:12:27.804Z,77.5
2023-10-01T19:18:29.827Z,77.8
2023-10-01T19:21:30.853Z,78
2023-10-01T19:24:31.867Z,78.6
2023-10-01T19:27:32.917Z,78.6
2023-10-01T19:30:33.920Z,78.9
2023-10-01T19:34:51.180Z,79.1
2023-10-01T19:36:35.979Z,79.1
2023-10-01T19:39:36.993Z,79.4
2023-10-01T19:42:38.005Z,79
2023-10-01T19:45:39.036Z,79.3
2023-10-01T19:48:40.082Z,79.3
2023-10-01T19:51:41.076Z,79.4
2023-10-01T19:54:42.095Z,79.3
2023-10-01T19:57:43.142Z,79.4
2023-10-01T20:00:44.163Z,80.2
2023-10-01T20:03:45.182Z,80
2023-10-01T20:05:01.419Z,80.3
2023-10-01T20:06:46.213Z,80.5
2023-10-01T20:09:47.206Z,80.4
2023-10-01T20:12:48.248Z,79.9
2023-10-01T20:15:49.265Z,79.9
2023-10-01T20:18:50.303Z,80.4
2023-10-01T20:21:51.297Z,80.7
2023-10-01T20:24:52.344Z,81
2023-10-01T20:27:53.362Z,81.1
2023-10-01T20:30:54.392Z,81.4
2023-10-01T20:33:55.396Z,82
2023-10-01T20:35:11.676Z,82.1
2023-10-01T20:36:56.417Z,82.1
2023-10-01T20:39:57.436Z,82.2
2023-10-01T20:42:58.479Z,81.8
2023-10-01T20:45:59.516Z,81.9
2023-10-01T20:49:00.531Z,82.2
2023-10-01T20:52:01.519Z,81.3
2023-10-01T20:55:02.572Z,81.2
2023-10-01T20:58:03.586Z,81.3
2023-10-01T21:01:04.615Z,80.5
2023-10-01T21:04:05.618Z,80.8
2023-10-01T21:05:21.918Z,80.7
2023-10-01T21:07:06.667Z,80.6
2023-10-01T21:10:07.680Z,80.7
2023-10-01T21:13:08.689Z,80.4
2023-10-01T21:16:09.709Z,80.1
2023-10-01T21:19:10.736Z,80.9
2023-10-01T21:22:11.751Z,80.8
2023-10-01T21:25:12.773Z,80.5
2023-10-01T21:28:13.814Z,80.9
2023-10-01T21:31:14.815Z,81.1
2023-10-01T21:34:15.858Z,81.3
2023-10-01T21:35:32.152Z,81.2
2023-10-01T21:37:16.872Z,80.7
2023-10-01T21:40:17.884Z,81.4
2023-10-01T21:43:18.927Z,81.8
2023-10-01T21:46:19.927Z,81.1
2023-10-01T21:49:20.964Z,80.4
2023-10-01T21:52:21.996Z,80.9
2023-10-01T21:55:23.009Z,80.8
2023-10-01T21:58:24.027Z,80.4
2023-10-01T22:01:25.042Z,80.4
2023-10-01T22:04:26.065Z,80.1
2023-10-01T22:05:42.394Z,80.1
2023-10-01T22:07:27.090Z,80.4
2023-10-01T22:10:28.131Z,80.5
2023-10-01T22:13:29.131Z,80.3
2023-10-01T22:16:30.156Z,80.6
2023-10-01T22:19:31.206Z,80.9
2023-10-01T22:22:32.223Z,81.5
2023-10-01T22:25:33.226Z,81.8
2023-10-01T22:28:34.241Z,82.1
2023-10-01T22:31:35.296Z,82.2
2023-10-01T22:34:36.319Z,82.3
2023-10-01T22:35:52.662Z,82.1
2023-10-01T22:37:37.337Z,82.3
2023-10-01T22:40:38.363Z,82.2
2023-10-01T22:43:39.373Z,82.2
2023-10-01T22:46:40.386Z,82.3
2023-10-01T22:49:41.399Z,83.2
2023-10-01T22:52:42.453Z,83.5
2023-10-01T22:55:43.455Z,84.3
2023-10-01T22:58:44.502Z,83.7
2023-10-01T23:01:45.524Z,83.7
2023-10-01T23:04:46.515Z,85.1
2023-10-01T23:06:02.880Z,85.2
2023-10-01T23:07:47.546Z,85
2023-10-01T23:10:48.572Z,85.6
2023-10-01T23:13:49.597Z,85
2023-10-01T23:16:50.612Z,85.4
2023-10-01T23:19:51.647Z,85.8
2023-10-01T23:22:52.665Z,85.8
2023-10-01T23:25:53.674Z,85.7
2023-10-01T23:28:54.725Z,85.5
2023-10-01T23:31:55.730Z,85.4
2023-10-01T23:34:56.741Z,85.1
2023-10-01T23:36:13.124Z,84.3
2023-10-01T23:37:57.774Z,84.5
2023-10-01T23:40:58.798Z,84.5
2023-10-01T23:43:59.819Z,84.7
2023-10-01T23:47:00.847Z,84.5
2023-10-01T23:50:01.859Z,84.9
2023-10-01T23:53:02.876Z,85
2023-10-01T23:56:03.935Z,85
2023-10-01T23:59:04.936Z,85.5
